TimeAKDT,TemperatureF,Dew PointF,Humidity,Sea Level PressureIn,VisibilityMPH,Wind Direction,Wind SpeedMPH,Gust SpeedMPH,PrecipitationIn,Events,Conditions,WindDirDegrees,DateUTC
12:54 AM,42.1,33.1,70,29.92,10.0,Calm,Calm,-,N/A,,Clear,0,2014-05-05 08:54:00
1:54 AM,41.0,34.0,76,29.93,10.0,Calm,Calm,-,N/A,,Overcast,0,2014-05-05 09:54:00
2:54 AM,43.0,33.1,68,29.93,10.0,Calm,Calm,-,N/A,,Overcast,0,2014-05-05 10:54:00
3:54 AM,42.1,33.1,70,29.94,10.0,Calm,Calm,-,N/A,,Overcast,0,2014-05-05 11:54:00
4:54 AM,39.9,34.0,79,29.95,10.0,Calm,Calm,-,N/A,,Mostly Cloudy,0,2014-05-05 12:54:00
5:54 AM,41.0,34.0,76,29.95,10.0,Calm,Calm,-,N/A,,Clear,0,2014-05-05 13:54:00
6:54 AM,43.0,33.1,68,29.95,10.0,West,3.5,-,N/A,,Scattered Clouds,280,2014-05-05 14:54:00
7:54 AM,46.9,35.1,63,29.95,10.0,West,3.5,-,N/A,,Clear,280,2014-05-05 15:54:00
8:54 AM,50.0,34.0,54,29.96,10.0,SW,3.5,-,N/A,,Clear,220,2014-05-05 16:54:00
10:54 AM,53.1,39.0,59,29.96,10.0,SE,9.2,-,N/A,,Clear,140,2014-05-05 18:54:00
11:54 AM,55.0,37.0,51,29.97,10.0,SE,11.5,-,N/A,,Clear,130,2014-05-05 19:54:00
12:54 PM,55.0,39.9,57,29.96,10.0,SSE,10.4,-,N/A,,Clear,150,2014-05-05 20:54:00
1:54 PM,55.9,42.1,60,29.96,10.0,SSE,10.4,-,N/A,,Clear,150,2014-05-05 21:54:00
2:54 PM,57.9,42.1,56,29.96,10.0,SE,11.5,-,N/A,,Clear,140,2014-05-05 22:54:00
3:54 PM,59.0,36.0,42,29.96,10.0,ESE,8.1,-,N/A,,Clear,110,2014-05-05 23:54:00
4:54 PM,60.1,37.9,44,29.95,10.0,SE,16.1,21.9,N/A,,Clear,130,2014-05-06 00:54:00
5:54 PM,60.1,35.1,39,29.95,10.0,ESE,10.4,-,N/A,,Clear,120,2014-05-06 01:54:00
6:54 PM,59.0,36.0,42,29.96,10.0,SE,8.1,-,N/A,,Clear,130,2014-05-06 02:54:00
7:54 PM,57.0,37.0,47,29.97,10.0,ENE,8.1,-,N/A,,Clear,70,2014-05-06 03:54:00
8:54 PM,52.0,39.0,61,29.99,10.0,East,8.1,-,N/A,,Clear,90,2014-05-06 04:54:00
9:54 PM,48.9,39.0,69,30.00,10.0,ESE,9.2,-,N/A,,Clear,110,2014-05-06 05:54:00
10:54 PM,51.1,39.0,63,30.02,10.0,East,9.2,-,N/A,,Clear,80,2014-05-06 06:54:00
11:54 PM,50.0,39.0,66,30.04,10.0,ENE,8.1,-,N/A,,Clear,70,2014-05-06 07:54:00